Time;durP1;ratioP1;P1;durP2;ratioP2;P2;SDS_P1;SDS_P2;PMS_P1;PMS_P2;Temp;Humidity;BMP_temperature;BMP_pressure;BME280_temperature;BME280_humidity;BME280_pressure;Samples;Min_cycle;Max_cycle;Signal;HPM_P1;HPM_P2
2022/02/09 00:07:16;;;;;;;14.60;11.60;;;;;;;4.72;100.00;99644.38;104855;1273;73600;-73
2022/02/09 00:09:45;;;;;;;11.70;10.30;;;;;;;4.72;100.00;99640.48;104954;1273;69187;-72
2022/02/09 00:12:27;;;;;;;13.60;12.30;;;;;;;4.73;100.00;99644.51;104824;1274;74206;-72
2022/02/09 00:15:10;;;;;;;13.60;11.80;;;;;;;4.74;100.00;99649.91;104920;1273;59682;-73
2022/02/09 00:39:08;;;;;;;13.40;12.10;;;;;;;4.82;100.00;99687.01;104851;1273;71298;-72
2022/02/09 01:57:38;;;;;;;16.00;14.50;;;;;;;4.79;100.00;99728.27;104904;1273;68686;-72
2022/02/09 02:00:07;;;;;;;16.20;14.50;;;;;;;4.79;100.00;99733.38;104903;1273;74428;-72
2022/02/09 02:02:34;;;;;;;17.30;15.60;;;;;;;4.79;100.00;99735.66;104984;1273;60221;-72
2022/02/09 02:05:00;;;;;;;17.20;15.50;;;;;;;4.79;100.00;99731.27;104849;1274;61204;-72
2022/02/09 02:07:42;;;;;;;18.90;16.30;;;;;;;4.79;100.00;99732.32;104885;1273;61000;-73
2022/02/09 02:10:11;;;;;;;21.70;17.30;;;;;;;4.78;100.00;99736.91;104923;1273;67547;-72
2022/02/09 02:13:01;;;;;;;18.20;15.60;;;;;;;4.78;100.00;99735.15;104928;1273;74383;-72
2022/02/09 02:15:54;;;;;;;16.70;15.00;;;;;;;4.79;100.00;99732.67;104955;1273;59686;-73
2022/02/09 02:18:14;;;;;;;16.30;14.70;;;;;;;4.79;100.00;99733.73;104933;1273;60826;-73
2022/02/09 02:26:14;;;;;;;15.60;13.40;;;;;;;4.80;100.00;99735.30;104915;1273;73440;-73
2022/02/09 02:56:54;;;;;;;17.00;15.30;;;;;;;4.77;100.00;99749.45;104895;1273;67813;-74
2022/02/09 02:56:59;;;;;;;17.00;15.30;;;;;;;4.78;100.00;99756.64;104882;1273;74535;-74
2022/02/09 03:14:42;;;;;;;17.40;15.70;;;;;;;4.81;100.00;99771.17;104915;1271;73591;-73
2022/02/09 03:17:10;;;;;;;16.30;14.50;;;;;;;4.81;100.00;99774.86;104919;1273;69113;-74
2022/02/09 03:22:22;;;;;;;17.00;15.40;;;;;;;4.81;100.00;99773.64;104822;1273;59804;-74
2022/02/09 03:57:25;;;;;;;17.60;15.70;;;;;;;4.81;100.00;99774.15;104951;1273;68268;-72
2022/02/09 03:59:52;;;;;;;17.60;15.80;;;;;;;4.81;100.00;99771.15;104982;1273;72287;-72
2022/02/09 04:02:18;;;;;;;17.70;15.90;;;;;;;4.80;100.00;99770.15;104892;1272;60528;-73
2022/02/09 04:04:49;;;;;;;17.40;15.60;;;;;;;4.80;100.00;99769.42;104953;1273;61973;-72
2022/02/09 04:07:15;;;;;;;18.70;16.60;;;;;;;4.80;100.00;99779.11;105021;1273;74412;-73
2022/02/09 04:09:47;;;;;;;18.10;16.20;;;;;;;4.80;100.00;99779.13;104993;1273;69511;-73
2022/02/09 04:15:05;;;;;;;15.50;13.50;;;;;;;4.79;100.00;99775.27;105037;1273;60470;-73
2022/02/09 04:17:42;;;;;;;15.20;13.60;;;;;;;4.79;100.00;99776.67;104898;1273;60896;-73
2022/02/09 04:36:22;;;;;;;19.10;17.00;;;;;;;4.78;100.00;99762.11;107326;1273;69474;-73
2022/02/09 04:38:57;;;;;;;20.10;17.30;;;;;;;4.78;100.00;99759.83;106948;1273;75515;-71
2022/02/09 04:54:44;;;;;;;20.80;18.60;;;;;;;4.81;100.00;99769.58;104942;1273;60561;-73
2022/02/09 04:57:50;;;;;;;20.10;18.00;;;;;;;4.81;100.00;99772.39;104886;1273;60988;-73
2022/02/09 05:24:50;;;;;;;18.00;16.00;;;;;;;4.88;100.00;99777.13;104446;1279;61226;-72
2022/02/09 05:27:23;;;;;;;22.30;19.80;;;;;;;4.88;100.00;99781.36;104426;1279;74254;-73
2022/02/09 05:29:49;;;;;;;21.20;18.70;;;;;;;4.89;100.00;99784.84;104442;1279;69157;-73
2022/02/09 05:32:16;;;;;;;19.60;17.60;;;;;;;4.89;100.00;99781.47;104469;1279;74488;-73
2022/02/09 05:34:43;;;;;;;20.80;17.50;;;;;;;4.91;100.00;99778.44;104547;1279;60642;-74
2022/02/09 05:37:09;;;;;;;21.90;18.80;;;;;;;4.92;100.00;99783.86;104467;1279;60397;-73
2022/02/09 05:39:36;;;;;;;22.60;18.90;;;;;;;4.93;100.00;99782.79;104534;1279;60394;-72
2022/02/09 05:42:08;;;;;;;20.60;18.20;;;;;;;4.94;100.00;99782.23;104894;1273;60403;-72
2022/02/09 05:44:35;;;;;;;20.10;18.10;;;;;;;4.93;100.00;99784.17;104912;1273;74565;-74
2022/02/09 05:52:25;;;;;;;17.60;15.60;;;;;;;4.97;100.00;99793.39;104908;1273;60405;-72
2022/02/09 05:59:48;;;;;;;19.00;16.90;;;;;;;4.98;100.00;99799.16;104899;1273;60840;-72
2022/02/09 06:02:19;;;;;;;18.80;16.70;;;;;;;4.99;100.00;99802.84;104956;1273;60976;-72
2022/02/09 06:04:46;;;;;;;20.60;18.50;;;;;;;4.99;100.00;99804.05;104912;1273;72541;-72
2022/02/09 06:07:14;;;;;;;20.40;18.10;;;;;;;5.00;100.00;99806.15;104915;1273;70480;-72
2022/02/09 06:09:41;;;;;;;17.80;15.60;;;;;;;5.01;100.00;99811.77;104887;1273;73539;-73
2022/02/09 06:20:13;;;;;;;18.30;16.40;;;;;;;5.06;100.00;99787.11;105206;1270;70559;-73
2022/02/09 06:22:39;;;;;;;22.80;19.20;;;;;;;5.08;100.00;99794.46;105140;1270;72359;-72
2022/02/09 06:25:06;;;;;;;20.00;17.80;;;;;;;5.08;100.00;99801.49;105043;1271;60607;-73
2022/02/09 06:27:33;;;;;;;17.50;15.20;;;;;;;5.10;100.00;99796.70;104982;1270;62419;-74
2022/02/09 06:29:59;;;;;;;18.50;16.30;;;;;;;5.11;100.00;99793.30;105188;1270;74515;-75
2022/02/09 06:32:27;;;;;;;18.40;16.50;;;;;;;5.13;100.00;99801.70;105209;1270;60517;-74
2022/02/09 06:34:54;;;;;;;19.30;16.30;;;;;;;5.15;100.00;99807.77;105176;1270;74186;-78
2022/02/09 06:39:55;;;;;;;23.70;17.70;;;;;;;5.18;100.00;99811.58;105119;1270;60489;-74
2022/02/09 06:42:23;;;;;;;20.80;18.20;;;;;;;5.19;100.00;99812.95;105167;1270;74689;-74
2022/02/09 06:44:52;;;;;;;21.60;16.80;;;;;;;5.21;100.00;99815.71;105229;1270;68881;-74
2022/02/09 06:47:23;;;;;;;21.00;18.80;;;;;;;5.22;100.00;99821.15;105129;1270;73456;-74
2022/02/09 06:50:03;;;;;;;23.50;19.00;;;;;;;5.23;100.00;99825.16;105063;1269;60471;-74
2022/02/09 06:52:29;;;;;;;18.40;15.90;;;;;;;5.24;100.00;99828.84;105109;1270;60867;-75
2022/02/09 06:55:16;;;;;;;18.30;14.60;;;;;;;5.25;100.00;99827.56;105145;1270;73697;-75
2022/02/09 07:00:20;;;;;;;16.10;14.50;;;;;;;5.26;100.00;99825.74;105237;1270;72877;-75
2022/02/09 07:02:47;;;;;;;17.60;15.30;;;;;;;5.27;100.00;99827.13;105208;1270;60491;-79
2022/02/09 07:05:15;;;;;;;19.40;15.60;;;;;;;5.29;100.00;99829.02;105132;1270;61783;-77
2022/02/09 07:07:43;;;;;;;17.80;16.00;;;;;;;5.31;100.00;99818.75;104900;1271;74499;-77
2022/02/09 07:10:11;;;;;;;16.70;14.70;;;;;;;5.33;100.00;99818.66;105175;1270;70481;-75
2022/02/09 07:12:38;;;;;;;16.20;13.80;;;;;;;5.34;100.00;99820.39;105236;1270;73355;-74
2022/02/09 07:15:08;;;;;;;18.10;15.00;;;;;;;5.36;100.00;99819.65;105152;1270;60513;-73
2022/02/09 07:17:35;;;;;;;21.60;17.90;;;;;;;5.35;100.00;99820.90;105154;1270;60469;-75
2022/02/09 07:20:17;;;;;;;20.30;17.90;;;;;;;5.35;100.00;99824.59;104969;1270;60676;-76
2022/02/09 07:22:46;;;;;;;19.80;17.40;;;;;;;5.37;100.00;99827.36;105199;1270;69447;-72
2022/02/09 07:25:16;;;;;;;19.50;17.50;;;;;;;5.40;100.00;99822.15;105383;1270;73377;-75
2022/02/09 07:30:13;;;;;;;16.30;14.30;;;;;;;5.48;100.00;99825.59;105178;1270;60338;-73
2022/02/09 07:32:40;;;;;;;18.70;16.70;;;;;;;5.51;100.00;99826.38;105446;1270;74581;-74
2022/02/09 07:35:08;;;;;;;22.70;20.30;;;;;;;5.55;100.00;99826.05;105091;1270;69105;-74
2022/02/09 07:37:34;;;;;;;22.80;20.30;;;;;;;5.58;100.00;99827.20;105186;1270;73468;-74
2022/02/09 07:40:04;;;;;;;18.70;16.80;;;;;;;5.62;100.00;99825.81;105075;1270;60694;-73
2022/02/09 07:42:33;;;;;;;22.00;18.90;;;;;;;5.69;100.00;99826.31;105223;1270;60899;-72
2022/02/09 07:48:00;;;;;;;22.60;20.30;;;;;;;5.80;100.00;99826.83;105179;1270;60479;-73
2022/02/09 07:53:05;;;;;;;27.70;25.00;;;;;;;5.82;100.00;99826.57;105158;1270;60818;-73
2022/02/09 07:55:32;;;;;;;18.50;16.60;;;;;;;5.84;100.00;99828.25;105206;1270;61057;-73
2022/02/09 07:57:58;;;;;;;18.90;14.90;;;;;;;5.87;100.00;99825.70;105206;1270;74554;-74
2022/02/09 08:00:25;;;;;;;15.70;14.10;;;;;;;5.91;100.00;99825.89;105187;1270;70196;-73
2022/02/09 08:02:52;;;;;;;16.40;13.90;;;;;;;5.94;100.00;99833.05;105185;1270;74179;-72
2022/02/09 08:05:19;;;;;;;18.20;16.30;;;;;;;5.96;100.00;99831.23;105163;1270;60562;-72
2022/02/09 08:07:46;;;;;;;16.30;14.60;;;;;;;5.98;100.00;99826.75;104965;1270;62078;-75
2022/02/09 08:10:24;;;;;;;18.60;15.00;;;;;;;6.02;100.00;99828.23;105271;1270;74700;-74
2022/02/09 08:34:11;;;;;;;14.60;13.00;;;;;;;6.57;100.00;99826.41;105031;1270;60976;-75
2022/02/09 08:36:38;;;;;;;15.70;13.90;;;;;;;6.67;100.00;99824.46;105241;1270;74425;-74
2022/02/09 08:39:05;;;;;;;17.10;14.40;;;;;;;6.80;100.00;99820.77;105170;1270;67607;-75
2022/02/09 08:41:32;;;;;;;15.60;14.00;;;;;;;6.89;100.00;99816.17;105154;1270;74217;-75
2022/02/09 08:43:59;;;;;;;17.30;14.70;;;;;;;6.96;100.00;99813.27;105190;1270;60434;-75
2022/02/09 08:46:26;;;;;;;18.00;14.60;;;;;;;6.99;100.00;99819.66;105235;1270;60357;-74
2022/02/09 08:48:53;;;;;;;16.20;14.50;;;;;;;7.03;100.00;99819.86;104980;1270;75381;-74
2022/02/09 08:51:22;;;;;;;14.40;12.90;;;;;;;7.01;100.00;99819.41;105239;1270;69418;-74
2022/02/09 08:53:49;;;;;;;15.80;12.40;;;;;;;7.07;100.00;99821.30;105098;1270;74509;-74
2022/02/09 08:56:16;;;;;;;14.80;13.20;;;;;;;7.11;100.00;99822.38;105238;1270;60381;-74
2022/02/09 08:58:44;;;;;;;15.00;12.80;;;;;;;7.11;100.00;99823.63;105279;1269;61112;-73
2022/02/09 09:01:23;;;;;;;14.80;12.90;;;;;;;7.11;100.00;99824.33;105296;1270;74592;-75
2022/02/09 09:03:53;;;;;;;14.00;12.50;;;;;;;7.12;100.00;99825.17;105231;1270;70556;-75
2022/02/09 09:06:23;;;;;;;;;;;;;;;7.12;100.00;99824.98;105258;1270;72463;-74
2022/02/09 10:03:26;;;;;;;;;;;;;;;8.30;100.00;99814.20;105307;1270;59644;-74
2022/02/09 10:33:52;;;;;;;12.80;11.60;;;;;;;8.54;100.00;99789.78;107799;1277;61320;-73
2022/02/09 10:36:22;;;;;;;14.40;11.80;;;;;;;8.55;100.00;99784.94;107616;1276;74519;-73
2022/02/09 10:39:01;;;;;;;13.30;11.90;;;;;;;8.59;100.00;99781.78;107795;1277;70405;-73
2022/02/09 10:41:33;;;;;;;14.00;11.70;;;;;;;8.63;100.00;99787.61;104807;1280;70312;-75
2022/02/09 10:44:12;;;;;;;14.10;12.60;;;;;;;8.65;100.00;99783.79;104886;1277;61231;-74
2022/02/09 10:46:58;;;;;;;14.90;11.80;;;;;;;8.71;100.00;99779.77;104710;1277;60805;-73
2022/02/09 10:49:29;;;;;;;11.10;10.00;;;;;;;8.80;100.00;99774.07;104919;1277;74549;-75
2022/02/09 10:54:29;;;;;;;11.30;10.10;;;;;;;8.75;100.00;99769.86;104952;1272;74313;-75
2022/02/09 10:56:59;;;;;;;13.40;11.50;;;;;;;8.72;100.00;99764.33;105044;1271;60557;-74
2022/02/09 10:59:27;;;;;;;14.90;12.00;;;;;;;8.72;100.00;99766.11;105043;1271;60786;-75
2022/02/09 11:01:57;;;;;;;12.00;10.10;;;;;;;8.73;100.00;99763.60;105106;1271;75689;-76
2022/02/09 11:04:24;;;;;;;12.30;10.90;;;;;;;8.67;100.00;99768.83;105058;1272;70480;-74
2022/02/09 11:06:51;;;;;;;13.90;10.70;;;;;;;8.60;100.00;99767.73;104926;1274;72760;-73
2022/02/09 11:09:20;;;;;;;11.50;10.40;;;;;;;8.51;100.00;99765.66;105032;1271;61067;-74
2022/02/09 11:11:47;;;;;;;12.50;10.90;;;;;;;8.44;100.00;99767.77;105030;1271;61008;-74
2022/02/09 11:14:19;;;;;;;11.60;10.00;;;;;;;8.36;100.00;99766.14;105066;1271;74574;-74
2022/02/09 11:16:47;;;;;;;11.10;10.00;;;;;;;8.32;100.00;99765.41;105039;1271;70641;-75
2022/02/09 11:19:16;;;;;;;11.80;10.60;;;;;;;8.32;100.00;99767.02;105047;1271;74273;-75
2022/02/09 11:21:49;;;;;;;12.80;11.50;;;;;;;8.39;100.00;99766.02;105013;1271;60557;-75
2022/02/09 11:24:27;;;;;;;12.10;10.90;;;;;;;8.45;100.00;99767.34;105084;1271;62284;-75
2022/02/09 11:27:32;;;;;;;13.20;11.60;;;;;;;8.47;100.00;99761.25;105237;1271;74473;-75
2022/02/09 11:33:23;;;;;;;12.40;11.10;;;;;;;8.45;100.00;99762.40;104563;1277;70827;-75
2022/02/09 11:38:52;;;;;;;12.70;10.70;;;;;;;8.49;100.00;99762.59;104878;1277;61815;-75
2022/02/09 11:41:33;;;;;;;12.80;11.10;;;;;;;8.50;100.00;99760.93;104876;1277;74308;-75
2022/02/09 11:44:05;;;;;;;12.20;10.50;;;;;;;8.53;100.00;99763.61;104838;1277;68631;-75
2022/02/09 11:46:55;;;;;;;11.40;10.40;;;;;;;8.56;100.00;99760.10;104751;1277;169425;-73
2022/02/09 11:52:39;;;;;;;9.30;8.40;;;;;;;8.70;100.00;99754.33;104838;1277;62164;-75
2022/02/09 12:08:50;;;;;;;10.80;9.60;;;;;;;8.71;100.00;99752.18;104808;1277;61909;-73
2022/02/09 12:09:46;;;;;;;11.30;9.60;;;;;;;8.73;100.00;99748.85;104958;1273;75603;-74
2022/02/09 12:12:19;;;;;;;11.30;10.00;;;;;;;8.76;100.00;99746.95;104942;1274;70381;-73
2022/02/09 12:20:32;;;;;;;11.20;10.00;;;;;;;8.90;100.00;99743.46;104922;1274;61257;-73
2022/02/09 12:23:13;;;;;;;11.00;9.20;;;;;;;8.92;100.00;99746.22;105100;1274;75621;-73
2022/02/09 12:25:49;;;;;;;10.60;9.40;;;;;;;8.94;100.00;99738.88;104947;1274;70446;-75
2022/02/09 12:28:19;;;;;;;11.40;9.30;;;;;;;8.94;100.00;99740.64;104974;1275;73605;-75
2022/02/09 12:30:46;;;;;;;10.50;9.30;;;;;;;8.93;100.00;99740.10;104947;1275;61324;-74
2022/02/09 12:33:24;;;;;;;9.70;8.60;;;;;;;8.94;100.00;99736.85;105007;1273;60558;-74
2022/02/09 12:35:52;;;;;;;10.10;8.00;;;;;;;8.94;100.00;99737.05;104855;1274;74594;-74
2022/02/09 12:38:28;;;;;;;10.40;8.90;;;;;;;8.95;100.00;99731.00;104966;1274;69260;-74
2022/02/09 12:41:14;;;;;;;10.30;8.90;;;;;;;8.96;100.00;99732.71;104960;1273;73248;-74
2022/02/09 12:44:00;;;;;;;11.00;9.20;;;;;;;8.98;100.00;99729.61;104861;1276;60621;-77
2022/02/09 12:46:30;;;;;;;12.90;10.10;;;;;;;8.99;100.00;99727.75;105037;1274;60404;-75
2022/02/09 12:49:10;;;;;;;10.20;9.00;;;;;;;8.99;100.00;99730.79;105037;1273;73974;-75
2022/02/09 12:51:40;;;;;;;10.10;8.60;;;;;;;8.92;100.00;99731.66;105139;1273;69242;-77
2022/02/09 12:54:09;;;;;;;11.60;10.30;;;;;;;8.86;100.00;99731.75;105014;1273;74877;-75
2022/02/09 12:56:39;;;;;;;13.80;10.50;;;;;;;8.80;100.00;99734.91;104995;1273;61396;-75
2022/02/09 12:59:08;;;;;;;10.80;9.40;;;;;;;8.75;100.00;99731.42;105158;1273;60932;-74
2022/02/09 13:01:50;;;;;;;11.70;9.90;;;;;;;8.73;100.00;99726.73;104782;1277;72558;-75
2022/02/09 13:04:45;;;;;;;10.30;9.20;;;;;;;8.70;100.00;99725.81;104949;1273;70477;-75
2022/02/09 13:07:15;;;;;;;8.40;7.40;;;;;;;8.67;100.00;99724.54;104643;1277;74227;-75
2022/02/09 13:09:49;;;;;;;9.30;8.30;;;;;;;8.65;100.00;99722.88;104605;1280;60546;-76
2022/02/09 13:12:23;;;;;;;22.80;17.20;;;;;;;8.62;100.00;99726.38;104861;1277;62017;-76
2022/02/09 13:14:50;;;;;;;27.80;22.90;;;;;;;8.58;100.00;99726.53;104699;1277;74484;-77
2022/02/09 14:53:22;;;;;;;18.70;13.10;;;;;;;7.75;100.00;99724.80;105046;1274;70455;-75
2022/02/09 14:58:40;;;;;;;15.40;11.80;;;;;;;7.66;100.00;99720.41;104888;1275;60525;-76
2022/02/09 15:01:18;;;;;;;16.30;11.80;;;;;;;7.62;100.00;99720.37;105049;1274;60965;-75
2022/02/09 15:04:02;;;;;;;11.20;9.50;;;;;;;7.60;100.00;99722.77;105010;1274;74462;-74
2022/02/09 15:06:55;;;;;;;11.00;9.90;;;;;;;7.60;100.00;99727.40;104993;1273;69350;-75
2022/02/09 15:09:42;;;;;;;11.90;9.90;;;;;;;7.58;100.00;99726.05;105040;1274;73258;-74
2022/02/09 15:15:04;;;;;;;12.70;9.60;;;;;;;7.56;100.00;99726.52;105040;1274;60975;-75
2022/02/09 15:22:45;;;;;;;13.20;9.90;;;;;;;7.49;100.00;99722.18;105001;1274;73252;-76
2022/02/09 15:25:18;;;;;;;10.90;9.60;;;;;;;7.48;100.00;99725.60;105075;1272;60976;-75
2022/02/09 15:27:47;;;;;;;15.00;11.80;;;;;;;7.47;100.00;99728.65;105077;1274;60424;-75
2022/02/09 15:30:14;;;;;;;15.40;11.90;;;;;;;7.45;100.00;99728.36;105011;1274;74588;-75
2022/02/09 15:32:46;;;;;;;12.30;10.40;;;;;;;7.43;100.00;99721.92;105033;1274;70322;-74
2022/02/09 15:38:43;;;;;;;15.20;12.60;;;;;;;7.39;100.00;99715.52;104983;1273;60543;-75
2022/02/09 15:40:45;;;;;;;18.80;15.50;;;;;;;7.38;100.00;99715.09;104918;1274;61134;-75
2022/02/09 16:24:03;;;;;;;20.10;16.00;;;;;;;7.06;100.00;99712.17;105523;1273;75418;-76
2022/02/09 16:45:39;;;;;;;19.60;15.10;;;;;;;7.04;100.00;99724.75;105031;1273;60489;-75
2022/02/09 16:48:08;;;;;;;17.00;13.90;;;;;;;7.06;100.00;99725.42;105012;1273;61965;-74
2022/02/09 16:50:48;;;;;;;19.10;14.30;;;;;;;7.04;100.00;99734.65;105083;1273;74136;-75
2022/02/09 16:56:08;;;;;;;16.00;13.60;;;;;;;7.03;100.00;99737.17;105003;1273;72893;-75
2022/02/09 17:20:27;;;;;;;18.70;13.80;;;;;;;7.01;100.00;99749.66;104967;1273;69056;-71
2022/02/09 17:22:54;;;;;;;15.40;12.30;;;;;;;7.00;100.00;99746.83;104927;1273;73224;-72
2022/02/09 17:25:21;;;;;;;17.90;13.70;;;;;;;7.01;100.00;99750.70;104960;1273;60582;-73
2022/02/09 17:27:49;;;;;;;15.60;12.60;;;;;;;7.00;100.00;99742.44;105015;1273;61105;-72
2022/02/09 17:33:01;;;;;;;14.30;12.00;;;;;;;6.98;100.00;99744.45;104970;1272;69241;-73
2022/02/09 17:35:35;;;;;;;13.60;11.30;;;;;;;6.97;100.00;99747.83;104994;1273;73401;-72
2022/02/09 17:38:20;;;;;;;13.10;11.20;;;;;;;6.97;100.00;99753.34;105042;1273;60485;-73
2022/02/09 17:57:06;;;;;;;12.80;9.50;;;;;;;6.70;100.00;99761.98;105041;1273;74405;-73
2022/02/09 17:59:36;;;;;;;10.50;9.40;;;;;;;6.66;100.00;99765.00;105035;1273;69222;-72
2022/02/09 18:02:03;;;;;;;13.80;10.10;;;;;;;6.60;100.00;99771.91;104994;1273;73707;-73
2022/02/09 18:04:30;;;;;;;13.20;10.30;;;;;;;6.55;100.00;99772.62;104885;1273;60532;-72
2022/02/09 18:07:02;;;;;;;12.80;10.20;;;;;;;6.53;100.00;99779.41;104975;1272;60963;-73
2022/02/09 18:09:39;;;;;;;13.00;11.10;;;;;;;6.51;100.00;99779.84;105014;1273;75594;-73
2022/02/09 18:12:18;;;;;;;15.50;13.00;;;;;;;6.49;100.00;99782.23;105003;1273;69720;-72
2022/02/09 18:30:54;;;;;;;14.00;8.60;;;;;;;6.33;100.00;99765.33;104982;1273;60495;-73
2022/02/09 18:44:27;;;;;;;15.00;10.70;;;;;;;6.23;100.00;99763.92;104916;1272;60494;-73
2022/02/09 19:03:28;;;;;;;20.00;15.20;;;;;;;6.17;100.00;99758.01;104923;1273;75582;-72
2022/02/09 19:06:00;;;;;;;16.30;14.50;;;;;;;6.16;100.00;99753.06;104950;1273;70658;-72
2022/02/09 19:14:13;;;;;;;19.30;16.10;;;;;;;6.12;100.00;99763.80;104941;1273;61886;-75
2022/02/09 19:16:52;;;;;;;18.70;14.70;;;;;;;6.11;100.00;99764.38;105017;1273;75267;-74
2022/02/09 19:30:10;;;;;;;21.90;17.40;;;;;;;6.05;100.00;99760.36;104960;1273;74454;-72
2022/02/09 19:47:05;;;;;;;17.70;13.80;;;;;;;5.98;100.00;99759.90;104909;1273;70791;-73
2022/02/09 19:56:34;;;;;;;17.80;12.70;;;;;;;6.00;100.00;99759.30;104973;1273;76000;-72
2022/02/09 19:59:05;;;;;;;14.10;11.50;;;;;;;6.00;100.00;99765.30;104962;1273;69704;-73
2022/02/09 20:01:36;;;;;;;16.40;12.90;;;;;;;6.00;100.00;99761.06;104967;1272;73808;-72
2022/02/09 20:04:04;;;;;;;15.50;12.10;;;;;;;6.00;100.00;99763.16;104959;1273;60620;-72
2022/02/09 20:06:35;;;;;;;17.80;12.20;;;;;;;6.00;100.00;99759.45;104964;1273;60725;-73
2022/02/09 20:09:03;;;;;;;18.60;12.80;;;;;;;6.00;100.00;99758.95;104921;1273;75848;-73
2022/02/09 20:11:31;;;;;;;17.90;13.60;;;;;;;5.99;100.00;99759.32;104934;1273;67990;-73
2022/02/09 20:13:58;;;;;;;18.50;13.80;;;;;;;6.00;100.00;99762.81;104937;1273;73931;-72
2022/02/09 20:16:25;;;;;;;19.90;13.00;;;;;;;6.00;100.00;99765.65;104966;1273;60592;-73
2022/02/09 20:18:58;;;;;;;20.60;13.10;;;;;;;6.00;100.00;99766.53;105177;1273;60347;-75
2022/02/09 20:21:27;;;;;;;17.90;11.90;;;;;;;5.99;100.00;99766.75;104949;1272;75405;-73
2022/02/09 20:23:55;;;;;;;15.90;11.20;;;;;;;5.99;100.00;99771.32;104981;1273;68966;-75
2022/02/09 20:26:25;;;;;;;18.30;12.30;;;;;;;5.99;100.00;99779.80;105094;1273;73709;-74
2022/02/09 20:29:07;;;;;;;19.40;11.40;;;;;;;5.99;100.00;99781.92;104954;1273;60569;-73
2022/02/09 20:31:43;;;;;;;18.10;11.70;;;;;;;5.98;100.00;99783.19;105017;1273;60415;-73
2022/02/09 20:34:22;;;;;;;14.70;10.60;;;;;;;5.98;100.00;99784.95;104842;1273;72586;-71
2022/02/09 20:36:49;;;;;;;17.10;10.80;;;;;;;5.98;100.00;99784.95;104970;1273;69351;-73
2022/02/09 20:39:22;;;;;;;15.40;10.00;;;;;;;5.97;100.00;99779.15;104948;1273;73294;-71
2022/02/09 20:41:50;;;;;;;14.80;10.60;;;;;;;5.98;100.00;99780.73;105023;1273;60364;-72
2022/02/09 20:44:26;;;;;;;15.40;10.20;;;;;;;5.98;100.00;99779.14;104973;1273;60868;-73
2022/02/09 20:46:55;;;;;;;14.90;10.80;;;;;;;5.97;100.00;99778.99;104972;1273;75161;-73
2022/02/09 20:49:22;;;;;;;14.70;9.90;;;;;;;5.97;100.00;99780.40;105066;1273;69468;-73
2022/02/09 20:51:48;;;;;;;13.50;10.20;;;;;;;5.96;100.00;99776.54;104928;1273;74528;-72
2022/02/09 20:54:15;;;;;;;15.00;9.50;;;;;;;5.95;100.00;99774.98;104943;1272;60541;-73
2022/02/09 20:56:43;;;;;;;14.30;10.00;;;;;;;5.93;100.00;99766.59;105002;1273;61866;-73
2022/02/09 20:59:13;;;;;;;13.20;9.50;;;;;;;5.92;100.00;99763.77;104929;1273;75606;-73
2022/02/09 21:01:50;;;;;;;;;;;;;;;5.92;100.00;99764.84;104978;1272;68914;-72
2022/02/09 21:04:20;;;;;;;19.60;10.40;;;;;;;5.90;100.00;99764.56;104954;1273;74109;-71
2022/02/09 21:14:47;;;;;;;14.40;11.00;;;;;;;5.88;100.00;99764.28;104942;1273;69332;-72
2022/02/09 21:42:07;;;;;;;23.50;14.50;;;;;;;5.80;100.00;99751.52;104937;1273;70175;-72
2022/02/09 21:57:41;;;;;;;16.80;12.60;;;;;;;5.74;100.00;99755.61;104920;1273;74302;-74
2022/02/09 22:16:50;;;;;;;17.00;11.20;;;;;;;5.72;100.00;99742.80;105008;1272;61049;-72
2022/02/09 22:22:16;;;;;;;17.90;12.40;;;;;;;5.71;100.00;99748.12;105011;1273;69145;-72
2022/02/09 22:54:25;;;;;;;18.10;10.40;;;;;;;5.71;100.00;99728.02;104910;1273;74421;-72
2022/02/09 22:56:29;;;;;;;17.20;11.20;;;;;;;5.70;100.00;99730.19;104945;1273;62043;-71
2022/02/09 22:58:57;;;;;;;14.20;11.00;;;;;;;5.69;100.00;99726.88;105001;1273;75450;-72
2022/02/09 23:07:06;;;;;;;14.60;9.80;;;;;;;5.68;100.00;99721.95;104924;1273;60391;-72
2022/02/09 23:09:56;;;;;;;18.70;12.00;;;;;;;5.68;100.00;99714.02;105005;1273;60889;-72
2022/02/09 23:12:32;;;;;;;18.70;11.60;;;;;;;5.68;100.00;99711.75;104957;1272;73532;-72
2022/02/09 23:58:43;;;;;;;15.10;10.60;;;;;;;5.64;100.00;99680.83;104714;1273;73490;-72
